Time;durP1;ratioP1;P1;durP2;ratioP2;P2;SDS_P1;SDS_P2;PMS_P1;PMS_P2;Temp;Humidity;BMP_temperature;BMP_pressure;BME280_temperature;BME280_humidity;BME280_pressure;Samples;Min_cycle;Max_cycle;Signal;HPM_P1;HPM_P2
2023/01/05 00:00:10;;;;;;;37.60;5.35;;;;;;;7.75;100.00;99737.41;5026342;28;20071;-75
2023/01/05 00:02:38;;;;;;;26.75;5.18;;;;;;;7.72;100.00;99699.69;5027401;28;20056;-74
2023/01/05 00:05:04;;;;;;;19.70;5.73;;;;;;;7.67;100.00;99692.25;5026099;28;20498;-75
2023/01/05 00:07:29;;;;;;;19.90;3.47;;;;;;;7.66;100.00;99684.47;5009826;28;20490;-74
2023/01/05 00:09:55;;;;;;;22.93;4.77;;;;;;;7.58;100.00;99672.81;5026118;28;20048;-75
2023/01/05 00:23:17;;;;;;;20.17;2.70;;;;;;;7.38;100.00;99624.59;5023057;28;20044;-75
2023/01/05 00:25:42;;;;;;;15.40;3.55;;;;;;;7.34;100.00;99630.41;5009591;28;20017;-74
2023/01/05 00:28:07;;;;;;;23.67;2.57;;;;;;;7.32;100.00;99635.88;5025851;28;20033;-75
2023/01/05 00:30:42;;;;;;;22.13;4.67;;;;;;;7.27;100.00;99616.97;5009550;28;20163;-76
2023/01/05 00:33:08;;;;;;;11.68;3.05;;;;;;;7.30;100.00;99598.03;5020522;28;20494;-75
2023/01/05 00:35:34;;;;;;;18.42;3.20;;;;;;;7.29;100.00;99604.34;5025002;28;20502;-75
2023/01/05 00:37:59;;;;;;;12.10;2.60;;;;;;;7.17;100.00;99616.31;5019815;28;20079;-75
2023/01/05 00:40:25;;;;;;;24.63;4.50;;;;;;;7.10;100.00;99642.72;5026292;28;20037;-75
2023/01/05 00:42:50;;;;;;;14.93;4.10;;;;;;;7.01;100.00;99674.72;5026434;28;20037;-75
2023/01/05 00:45:17;;;;;;;19.17;3.97;;;;;;;7.04;100.00;99715.00;5026208;28;20032;-75
2023/01/05 00:47:42;;;;;;;20.65;4.50;;;;;;;6.95;100.00;99710.69;5025669;28;20107;-75
2023/01/05 00:50:11;;;;;;;25.67;4.20;;;;;;;6.93;100.00;99710.88;5005814;28;20565;-75
2023/01/05 00:52:37;;;;;;;22.58;2.40;;;;;;;6.97;100.00;99676.88;5024278;28;20034;-75
2023/01/05 00:55:03;;;;;;;24.05;3.17;;;;;;;6.95;100.00;99609.84;5027668;28;20034;-75
2023/01/05 00:57:29;;;;;;;;;;;;;;;6.94;100.00;99606.38;5017904;28;20027;-75
2023/01/05 00:59:54;;;;;;;14.55;3.47;;;;;;;6.96;100.00;99569.06;5026229;28;19995;-74
2023/01/05 01:02:20;;;;;;;17.30;3.40;;;;;;;6.93;100.00;99550.81;5009416;28;20741;-75
2023/01/05 01:04:45;;;;;;;16.40;2.27;;;;;;;6.95;100.00;99538.22;5009898;28;20033;-75
2023/01/05 01:07:10;;;;;;;10.03;2.63;;;;;;;6.97;100.00;99467.22;5025860;28;20288;-75
2023/01/05 01:09:36;;;;;;;18.60;2.13;;;;;;;6.95;100.00;99429.44;5009412;28;20045;-75
2023/01/05 01:12:01;;;;;;;10.13;2.65;;;;;;;6.96;100.00;99429.25;5009090;28;20040;-75
2023/01/05 01:14:27;;;;;;;15.77;3.47;;;;;;;6.92;100.00;99422.63;5025782;28;20048;-75
2023/01/05 01:16:52;;;;;;;15.95;3.35;;;;;;;6.90;100.00;99434.41;5008220;28;20282;-75
2023/01/05 01:19:20;;;;;;;15.57;2.80;;;;;;;6.95;100.00;99459.47;5025451;28;20129;-75
2023/01/05 01:21:46;;;;;;;14.93;3.08;;;;;;;6.88;100.00;99484.16;5025436;28;20083;-75
2023/01/05 01:24:16;;;;;;;22.38;4.20;;;;;;;6.85;100.00;99497.78;5009294;28;20391;-75
2023/01/05 01:26:41;;;;;;;14.20;2.00;;;;;;;6.85;100.00;99487.16;5024960;28;20041;-75
2023/01/05 01:29:06;;;;;;;17.42;2.47;;;;;;;6.89;100.00;99469.94;5009420;28;20127;-75
2023/01/05 01:31:34;;;;;;;16.20;2.57;;;;;;;6.86;100.00;99486.16;5011193;28;20041;-75
2023/01/05 01:34:00;;;;;;;16.40;3.33;;;;;;;6.84;100.00;99504.91;5006570;28;20021;-75
2023/01/05 01:36:25;;;;;;;9.85;3.03;;;;;;;6.75;100.00;99512.06;5023096;28;20128;-75
2023/01/05 01:38:50;;;;;;;14.50;2.67;;;;;;;6.76;100.00;99516.34;5024819;28;20076;-76
2023/01/05 01:41:16;;;;;;;17.02;3.65;;;;;;;6.82;100.00;99519.34;5008503;28;20291;-75
2023/01/05 01:43:55;;;;;;;14.17;2.87;;;;;;;6.84;100.00;99523.50;5021152;28;20423;-75
2023/01/05 01:46:24;;;;;;;20.90;3.17;;;;;;;6.85;100.00;99516.34;5025388;28;20067;-75
2023/01/05 01:48:56;;;;;;;14.20;1.75;;;;;;;6.88;100.00;99484.16;5026284;28;20079;-75
2023/01/05 01:51:43;;;;;;;11.05;2.80;;;;;;;6.94;100.00;99439.22;5008733;28;20052;-74
2023/01/05 01:54:13;;;;;;;14.57;1.70;;;;;;;6.89;100.00;99398.28;5019675;28;20044;-75
2023/01/05 01:56:46;;;;;;;10.77;2.70;;;;;;;6.89;100.00;99387.69;5007898;28;20037;-75
2023/01/05 01:59:12;;;;;;;11.60;2.38;;;;;;;6.90;100.00;99397.28;5025412;28;20036;-75
2023/01/05 02:01:38;;;;;;;15.70;3.13;;;;;;;6.91;100.00;99377.72;5024223;28;20493;-75
2023/01/05 02:04:05;;;;;;;18.15;2.78;;;;;;;6.90;100.00;99349.53;5022660;28;20111;-75
2023/01/05 02:06:30;;;;;;;15.38;4.10;;;;;;;6.90;100.00;99312.38;5025102;28;20167;-76
2023/01/05 02:08:56;;;;;;;10.43;2.57;;;;;;;6.83;100.00;99283.06;5025207;28;20128;-75
2023/01/05 02:11:33;;;;;;;16.33;3.40;;;;;;;6.88;100.00;99322.31;5024955;28;20029;-76
2023/01/05 02:14:19;;;;;;;16.83;3.47;;;;;;;6.93;100.00;99317.31;5025180;28;20322;-75
2023/01/05 02:16:59;;;;;;;14.25;2.78;;;;;;;6.86;100.00;99353.50;5024869;28;20029;-75
2023/01/05 02:20:02;;;;;;;18.77;2.15;;;;;;;6.74;100.00;99395.50;5024582;28;20057;-75
2023/01/05 02:23:13;;;;;;;8.55;1.60;;;;;;;6.78;100.00;99415.38;5021483;28;20060;-75
2023/01/05 02:26:15;;;;;;;10.85;2.40;;;;;;;6.80;100.00;99392.19;5024181;28;20033;-75
2023/01/05 02:28:41;;;;;;;7.20;2.35;;;;;;;6.82;100.00;99389.38;5024845;28;20299;-75
2023/01/05 02:31:20;;;;;;;16.80;2.20;;;;;;;6.81;100.00;99372.59;5024938;28;20482;-76
2023/01/05 02:34:06;;;;;;;13.27;2.92;;;;;;;6.85;100.00;99336.78;5024783;28;20025;-75
2023/01/05 02:37:01;;;;;;;11.17;1.90;;;;;;;6.83;100.00;99338.75;5024860;28;20063;-75
2023/01/05 02:39:34;;;;;;;11.43;1.90;;;;;;;6.74;100.00;99338.00;5003377;28;20308;-75
2023/01/05 02:42:08;;;;;;;12.43;2.17;;;;;;;6.74;100.00;99345.94;5021710;28;20037;-75
2023/01/05 02:44:34;;;;;;;6.88;1.15;;;;;;;6.86;100.00;99321.66;5015116;28;20034;-76
2023/01/05 02:47:23;;;;;;;12.80;2.57;;;;;;;6.90;100.00;99244.22;5008627;28;20034;-75
2023/01/05 02:49:48;;;;;;;8.13;1.90;;;;;;;6.92;100.00;99148.53;5027186;28;20044;-75
2023/01/05 02:52:14;;;;;;;9.77;2.38;;;;;;;6.93;100.00;99102.41;5028253;28;20029;-75
2023/01/05 02:54:52;;;;;;;7.10;1.30;;;;;;;6.92;100.00;99066.28;5028161;28;20041;-76
2023/01/05 02:57:45;;;;;;;11.80;2.28;;;;;;;6.84;100.00;99101.69;5019636;28;20037;-75
2023/01/05 03:00:37;;;;;;;9.35;2.13;;;;;;;6.79;100.00;99133.22;5028040;28;20075;-75
2023/01/05 03:03:20;;;;;;;10.25;2.35;;;;;;;6.76;100.00;99145.00;5004351;28;20116;-75
2023/01/05 03:05:55;;;;;;;12.00;2.22;;;;;;;6.75;100.00;99214.97;5027938;28;20061;-75
2023/01/05 03:08:24;;;;;;;11.95;2.17;;;;;;;6.80;100.00;99253.41;5011816;28;20034;-75
2023/01/05 03:14:14;;;;;;;14.70;1.90;;;;;;;6.69;100.00;99416.41;5027543;28;20140;-76
2023/01/05 03:16:44;;;;;;;17.60;3.25;;;;;;;6.68;100.00;99452.72;5027256;28;20144;-75
2023/01/05 03:36:51;;;;;;;15.70;2.70;;;;;;;6.69;100.00;99554.34;5010993;28;20107;-75
2023/01/05 03:39:18;;;;;;;19.58;3.15;;;;;;;6.66;100.00;99552.84;5027235;28;20033;-75
2023/01/05 03:41:47;;;;;;;13.07;2.95;;;;;;;6.70;100.00;99540.91;5026979;28;20033;-75
2023/01/05 03:44:13;;;;;;;20.67;2.55;;;;;;;6.64;100.00;99524.84;5007312;28;20682;-75
2023/01/05 03:46:39;;;;;;;14.80;2.60;;;;;;;6.74;100.00;99528.97;5025056;28;20034;-75
2023/01/05 03:49:05;;;;;;;;;;;;;;;6.80;100.00;99484.19;5026741;28;20490;-75
2023/01/05 03:51:30;;;;;;;7.78;2.13;;;;;;;6.76;100.00;99450.03;5026869;28;20016;-76
2023/01/05 03:53:55;;;;;;;17.43;2.73;;;;;;;6.76;100.00;99460.66;5018514;28;20014;-76
2023/01/05 03:56:21;;;;;;;14.53;2.43;;;;;;;6.81;100.00;99468.09;5026906;28;20540;-76
2023/01/05 03:58:47;;;;;;;16.38;2.50;;;;;;;6.82;100.00;99453.03;5010242;28;20276;-75
2023/01/05 04:01:12;;;;;;;12.73;2.55;;;;;;;6.80;100.00;99474.41;5025896;28;20037;-76
2023/01/05 04:03:39;;;;;;;19.70;4.17;;;;;;;6.84;100.00;99474.91;5026766;28;20025;-75
2023/01/05 04:06:06;;;;;;;8.10;2.05;;;;;;;6.78;100.00;99446.41;5026586;28;20029;-76
2023/01/05 04:08:33;;;;;;;17.95;2.95;;;;;;;6.85;100.00;99450.03;5026502;28;20057;-76
2023/01/05 04:11:20;;;;;;;13.60;3.03;;;;;;;6.87;100.00;99466.59;5026008;28;20022;-76
2023/01/05 04:13:51;;;;;;;18.05;3.72;;;;;;;6.85;100.00;99460.63;5026296;28;20583;-76
2023/01/05 04:16:17;;;;;;;23.60;2.30;;;;;;;6.83;100.00;99481.19;5009814;28;20033;-77
2023/01/05 04:18:43;;;;;;;10.45;1.52;;;;;;;6.81;100.00;99489.31;5026215;28;20033;-76
2023/01/05 04:21:08;;;;;;;16.83;3.07;;;;;;;6.82;100.00;99519.34;5025787;28;20022;-76
2023/01/05 04:23:36;;;;;;;15.00;3.88;;;;;;;6.79;100.00;99524.97;5026111;28;20037;-75
2023/01/05 04:26:03;;;;;;;17.02;2.58;;;;;;;6.87;100.00;99551.50;5025899;28;20129;-76
2023/01/05 04:28:28;;;;;;;18.48;2.22;;;;;;;6.85;100.00;99561.44;5026074;28;20118;-75
2023/01/05 04:30:56;;;;;;;13.48;2.65;;;;;;;6.87;100.00;99572.72;5025903;28;20075;-76
2023/01/05 04:33:23;;;;;;;10.40;1.80;;;;;;;6.88;100.00;99553.16;5006106;28;20049;-75
2023/01/05 04:35:50;;;;;;;16.73;2.70;;;;;;;6.86;100.00;99563.94;5025562;28;20037;-77
2023/01/05 04:38:17;;;;;;;10.55;2.28;;;;;;;6.86;100.00;99568.41;5026148;28;20033;-76
2023/01/05 04:40:47;;;;;;;12.15;1.70;;;;;;;6.86;100.00;99568.41;5025233;28;20116;-75
2023/01/05 04:43:12;;;;;;;20.05;4.47;;;;;;;6.85;100.00;99580.03;5026122;28;20863;-75
2023/01/05 04:45:38;;;;;;;27.13;3.38;;;;;;;6.76;100.00;99581.84;5025652;28;20156;-76
2023/01/05 04:48:05;;;;;;;26.33;3.83;;;;;;;6.79;100.00;99597.44;5027282;28;20040;-76
2023/01/05 04:50:31;;;;;;;8.57;2.10;;;;;;;6.86;100.00;99618.81;5008870;28;20029;-76
2023/01/05 04:52:57;;;;;;;16.00;1.88;;;;;;;6.81;100.00;99626.44;5025745;28;20037;-75
2023/01/05 04:55:26;;;;;;;22.52;2.83;;;;;;;6.75;100.00;99631.44;5009257;28;20086;-76
2023/01/05 04:57:52;;;;;;;14.50;2.57;;;;;;;6.75;100.00;99642.03;5008777;28;20022;-76
2023/01/05 05:00:19;;;;;;;15.57;3.30;;;;;;;6.73;100.00;99661.78;5008551;28;20398;-76
2023/01/05 05:02:47;;;;;;;24.83;3.92;;;;;;;6.72;100.00;99665.44;5009201;28;20033;-76
2023/01/05 05:05:14;;;;;;;;;;;;;;;6.70;100.00;99662.94;5025826;28;20056;-76
2023/01/05 05:07:39;;;;;;;13.25;2.20;;;;;;;6.70;100.00;99659.44;5020965;28;19952;-76
2023/01/05 05:10:07;;;;;;;16.25;3.72;;;;;;;6.74;100.00;99655.44;5015646;28;20133;-76
2023/01/05 05:12:32;;;;;;;12.75;1.98;;;;;;;6.73;100.00;99646.66;5005314;28;20022;-76
2023/01/05 05:14:58;;;;;;;14.50;2.70;;;;;;;6.75;100.00;99671.22;5025281;28;20037;-76
2023/01/05 05:17:23;;;;;;;13.80;2.07;;;;;;;6.71;100.00;99672.53;5025269;28;20104;-76
2023/01/05 05:19:48;;;;;;;11.10;2.47;;;;;;;6.69;100.00;99692.25;5025094;28;20537;-75
2023/01/05 05:22:16;;;;;;;21.80;2.67;;;;;;;6.69;100.00;99713.47;5024646;28;20022;-76
2023/01/05 05:24:41;;;;;;;13.70;2.30;;;;;;;6.62;100.00;99746.94;5008516;28;20083;-75
2023/01/05 05:27:07;;;;;;;10.07;2.17;;;;;;;6.68;100.00;99784.28;5024897;28;20076;-75
2023/01/05 05:29:32;;;;;;;13.83;3.23;;;;;;;6.67;100.00;99779.97;5008511;28;20104;-75
2023/01/05 05:31:58;;;;;;;9.80;1.97;;;;;;;6.68;100.00;99752.44;5025881;28;20033;-76
2023/01/05 05:34:23;;;;;;;13.90;2.70;;;;;;;6.64;100.00;99753.75;5025171;28;20028;-75
2023/01/05 05:36:48;;;;;;;7.77;1.70;;;;;;;6.61;100.00;99748.78;5024626;28;20288;-77
2023/01/05 05:39:15;;;;;;;19.13;3.33;;;;;;;6.61;100.00;99793.03;5024914;28;20039;-76
2023/01/05 05:41:40;;;;;;;;;;;;;;;6.55;100.00;99855.47;5025488;28;20046;-75
2023/01/05 05:44:06;;;;;;;18.98;2.17;;;;;;;6.49;100.00;99888.78;5025128;28;19921;-76
2023/01/05 05:46:31;;;;;;;13.13;2.10;;;;;;;6.45;100.00;99910.47;5005759;28;20022;-75
2023/01/05 05:48:57;;;;;;;12.23;2.20;;;;;;;6.45;100.00;99916.59;5008861;28;20029;-75
2023/01/05 05:51:24;;;;;;;12.70;2.63;;;;;;;6.51;100.00;99920.47;5024439;28;20030;-75
2023/01/05 05:53:50;;;;;;;14.32;2.15;;;;;;;6.59;100.00;99899.28;5025908;28;20025;-75
2023/01/05 05:56:15;;;;;;;15.30;2.22;;;;;;;6.56;100.00;99870.44;5024690;28;20378;-76
2023/01/05 05:58:41;;;;;;;15.57;2.20;;;;;;;6.65;100.00;99837.66;5008404;28;20056;-75
2023/01/05 06:01:06;;;;;;;15.93;2.40;;;;;;;6.73;100.00;99815.63;5007913;28;20025;-75
2023/01/05 06:03:32;;;;;;;16.03;3.33;;;;;;;6.76;100.00;99791.41;5008181;28;20059;-76
2023/01/05 06:05:57;;;;;;;15.53;2.57;;;;;;;6.74;100.00;99759.75;5024287;28;20033;-76
2023/01/05 06:08:23;;;;;;;14.23;2.73;;;;;;;6.75;100.00;99777.31;5008345;28;20438;-75
2023/01/05 06:10:49;;;;;;;15.53;2.80;;;;;;;6.72;100.00;99761.75;5025478;28;20487;-75
2023/01/05 06:13:15;;;;;;;12.63;2.55;;;;;;;6.72;100.00;99777.66;5028389;28;20127;-76
2023/01/05 06:15:41;;;;;;;16.58;2.33;;;;;;;6.75;100.00;99790.59;5029474;28;20120;-76
2023/01/05 06:18:06;;;;;;;18.88;2.53;;;;;;;6.74;100.00;99781.00;5028360;28;20033;-75
2023/01/05 06:20:32;;;;;;;20.40;2.57;;;;;;;6.75;100.00;99781.81;5029065;28;20032;-76
2023/01/05 06:22:57;;;;;;;9.85;2.10;;;;;;;6.83;100.00;99778.34;5029092;28;20021;-76
2023/01/05 06:25:22;;;;;;;12.67;2.30;;;;;;;6.85;100.00;99779.00;5011708;28;20029;-75
2023/01/05 06:27:48;;;;;;;16.77;3.80;;;;;;;6.81;100.00;99765.22;5029301;28;20036;-75
2023/01/05 06:30:13;;;;;;;16.33;3.43;;;;;;;6.87;100.00;99785.81;5011512;28;20060;-75
2023/01/05 06:32:39;;;;;;;17.02;3.63;;;;;;;6.85;100.00;99793.09;5028834;28;20033;-76
2023/01/05 06:35:04;;;;;;;18.10;3.43;;;;;;;6.85;100.00;99790.44;5028995;28;20033;-75
2023/01/05 06:37:30;;;;;;;13.65;3.97;;;;;;;6.85;100.00;99818.81;5028916;28;20064;-75
2023/01/05 06:39:55;;;;;;;15.77;3.23;;;;;;;6.81;100.00;99812.16;5027466;28;20037;-76
2023/01/05 06:42:21;;;;;;;13.20;2.77;;;;;;;6.83;100.00;99842.00;5027971;28;20033;-76
2023/01/05 06:44:46;;;;;;;24.08;3.65;;;;;;;6.91;100.00;99847.38;5027559;28;20167;-75
2023/01/05 06:47:11;;;;;;;30.60;5.43;;;;;;;6.90;100.00;99824.47;5028730;28;20099;-75
2023/01/05 06:49:37;;;;;;;12.60;2.70;;;;;;;6.87;100.00;99857.47;5028514;28;20041;-75
2023/01/05 06:52:02;;;;;;;19.67;2.83;;;;;;;6.88;100.00;99876.84;5027271;28;20033;-75
2023/01/05 06:54:28;;;;;;;14.67;2.80;;;;;;;6.91;100.00;99850.03;5011168;28;20576;-76
2023/01/05 06:56:53;;;;;;;20.63;4.00;;;;;;;6.89;100.00;99806.88;5028754;28;20295;-75
2023/01/05 06:59:18;;;;;;;20.47;4.50;;;;;;;6.85;100.00;99771.88;5011199;28;20052;-75
2023/01/05 07:01:44;;;;;;;15.23;2.57;;;;;;;6.91;100.00;99765.09;5016357;28;20045;-75
2023/01/05 07:04:09;;;;;;;21.17;4.43;;;;;;;6.87;100.00;99695.59;5027571;28;20025;-75
2023/01/05 07:06:34;;;;;;;19.70;4.17;;;;;;;6.84;100.00;99668.59;5028263;28;20753;-75
2023/01/05 07:09:00;;;;;;;17.13;2.60;;;;;;;6.85;100.00;99622.47;5027466;28;20060;-75
2023/01/05 07:11:26;;;;;;;17.42;3.08;;;;;;;6.72;100.00;99567.28;5027440;28;20041;-77
2023/01/05 07:13:51;;;;;;;18.48;3.70;;;;;;;6.62;100.00;99450.72;5027716;28;20029;-76
2023/01/05 07:16:17;;;;;;;13.90;2.83;;;;;;;6.52;100.00;99395.22;5028160;28;20033;-75
2023/01/05 07:18:43;;;;;;;13.40;2.65;;;;;;;6.51;100.00;99369.72;5028322;28;20029;-76
2023/01/05 07:21:09;;;;;;;11.63;1.70;;;;;;;6.40;100.00;99353.34;5010430;28;20029;-75
2023/01/05 07:23:36;;;;;;;19.40;2.60;;;;;;;6.32;100.00;99351.53;5026119;28;20129;-76
2023/01/05 07:26:02;;;;;;;11.55;2.95;;;;;;;6.24;100.00;99264.91;5026963;28;20132;-75
2023/01/05 07:28:28;;;;;;;;;;;;;;;6.24;100.00;99222.50;5027968;28;20033;-76
2023/01/05 07:30:53;;;;;;;18.60;1.95;;;;;;;6.07;100.00;99194.44;5009844;28;19982;-75
2023/01/05 07:33:19;;;;;;;6.40;1.97;;;;;;;6.02;100.00;99237.34;5028448;28;20018;-75
2023/01/05 07:35:44;;;;;;;10.80;1.65;;;;;;;5.98;100.00;99280.22;5026599;28;20103;-75
2023/01/05 07:38:09;;;;;;;4.57;0.93;;;;;;;5.83;100.00;99270.28;5026968;28;20071;-75
2023/01/05 07:40:35;;;;;;;3.40;0.70;;;;;;;5.65;100.00;99172.50;5026320;28;20044;-74
2023/01/05 07:43:00;;;;;;;4.47;1.60;;;;;;;5.50;100.00;99161.78;5026678;28;20463;-76
2023/01/05 07:45:25;;;;;;;3.63;1.67;;;;;;;5.31;100.00;99145.44;5026750;28;20498;-75
2023/01/05 07:47:51;;;;;;;2.27;0.67;;;;;;;5.28;100.00;99136.81;5027997;28;20037;-75
2023/01/05 07:50:16;;;;;;;5.67;0.80;;;;;;;5.22;100.00;99173.72;5026470;28;20039;-75
2023/01/05 07:52:42;;;;;;;6.70;0.57;;;;;;;5.11;100.00;99206.63;5026221;28;20033;-75
2023/01/05 07:55:08;;;;;;;3.53;0.65;;;;;;;5.06;100.00;99267.16;5026140;28;20046;-75
2023/01/05 07:57:33;;;;;;;3.15;0.60;;;;;;;5.02;100.00;99290.44;5007074;28;20088;-75
2023/01/05 07:59:58;;;;;;;3.10;0.73;;;;;;;5.01;100.00;99327.63;5026413;28;20033;-75
2023/01/05 08:02:26;;;;;;;11.17;1.77;;;;;;;4.95;100.00;99371.44;5026224;28;20566;-75
2023/01/05 08:04:51;;;;;;;2.47;0.63;;;;;;;4.85;100.00;99386.59;5026059;28;20053;-75
2023/01/05 08:07:17;;;;;;;4.18;0.40;;;;;;;4.77;100.00;99426.22;5026389;28;20036;-76
2023/01/05 08:12:27;;;;;;;3.92;0.50;;;;;;;4.60;100.00;99470.25;5027223;28;20030;-75
2023/01/05 08:14:53;;;;;;;1.98;0.55;;;;;;;4.52;100.00;99513.31;5026083;28;20056;-75
2023/01/05 08:17:18;;;;;;;1.30;0.40;;;;;;;4.43;100.00;99522.16;5026308;28;20188;-74
2023/01/05 08:19:43;;;;;;;2.13;0.70;;;;;;;4.39;100.00;99534.84;5026058;28;20513;-75
2023/01/05 08:22:09;;;;;;;2.97;0.80;;;;;;;4.36;100.00;99529.88;5026218;28;20063;-76
2023/01/05 08:24:34;;;;;;;3.27;0.70;;;;;;;4.27;100.00;99537.88;5025845;28;20515;-75
2023/01/05 08:26:59;;;;;;;3.37;0.67;;;;;;;4.22;100.00;99578.78;5025304;28;20312;-75
2023/01/05 08:29:25;;;;;;;6.03;0.97;;;;;;;4.15;100.00;99588.28;5025748;28;20391;-75
2023/01/05 08:31:50;;;;;;;2.28;1.17;;;;;;;4.20;100.00;99623.00;5025623;28;20033;-75
2023/01/05 08:34:16;;;;;;;2.90;0.87;;;;;;;4.22;100.00;99623.69;5025921;28;20049;-75
2023/01/05 08:36:41;;;;;;;1.08;0.77;;;;;;;4.21;100.00;99613.28;5025399;28;20045;-75
2023/01/05 08:39:09;;;;;;;3.13;0.53;;;;;;;4.43;100.00;99644.56;5026658;28;20068;-75
2023/01/05 08:41:37;;;;;;;4.68;0.60;;;;;;;4.39;100.00;99589.50;5025090;28;20060;-75
2023/01/05 08:44:13;;;;;;;1.95;0.52;;;;;;;4.50;100.00;99569.97;5025543;28;20068;-75
2023/01/05 08:46:39;;;;;;;2.78;1.30;;;;;;;4.82;100.00;99554.34;5025201;28;20033;-75
2023/01/05 08:49:07;;;;;;;4.78;1.67;;;;;;;5.19;100.00;99541.84;5025249;28;20465;-75
2023/01/05 08:51:32;;;;;;;1.60;0.70;;;;;;;6.00;100.00;99482.25;5025993;28;20048;-75
2023/01/05 08:53:58;;;;;;;3.50;0.80;;;;;;;5.69;100.00;99142.06;5026701;28;20498;-75
2023/01/05 08:56:25;;;;;;;7.68;0.90;;;;;;;5.89;100.00;99030.41;5008726;28;20041;-75
2023/01/05 08:58:54;;;;;;;1.50;0.52;;;;;;;6.31;100.00;99000.84;5026664;28;20037;-76
2023/01/05 09:01:20;;;;;;;3.83;0.57;;;;;;;6.08;100.00;98719.19;5025314;28;20057;-75
2023/01/05 09:03:46;;;;;;;1.92;0.43;;;;;;;6.51;100.00;98687.53;5026496;28;20037;-76
2023/01/05 09:06:13;;;;;;;1.17;0.57;;;;;;;6.13;100.00;98459.81;5008881;28;20049;-74
2023/01/05 09:08:41;;;;;;;4.72;0.98;;;;;;;5.87;100.00;98466.44;5008582;28;20025;-75
2023/01/05 09:11:16;;;;;;;4.10;1.02;;;;;;;6.15;100.00;98560.31;5024989;28;20044;-75
2023/01/05 09:13:49;;;;;;;1.65;0.93;;;;;;;6.94;100.00;98568.19;5026462;28;20033;-74
2023/01/05 09:16:17;;;;;;;7.85;1.23;;;;;;;6.82;100.00;98320.41;5008516;28;20893;-75
2023/01/05 09:18:43;;;;;;;1.23;0.90;;;;;;;5.85;100.00;98181.66;5025017;28;20028;-75
2023/01/05 09:21:09;;;;;;;5.13;0.55;;;;;;;6.26;100.00;98440.56;5024938;28;20132;-75
2023/01/05 09:23:36;;;;;;;3.08;0.60;;;;;;;6.54;100.00;98517.47;5026005;28;20045;-76
2023/01/05 09:26:09;;;;;;;5.07;0.90;;;;;;;6.39;100.00;98471.66;5024780;28;20442;-74
2023/01/05 09:28:35;;;;;;;1.38;0.60;;;;;;;5.76;100.00;98309.91;5025123;28;20061;-74
2023/01/05 09:31:08;;;;;;;;;;;;;;;5.72;100.00;98617.41;5024994;28;20031;-75
2023/01/05 09:33:33;;;;;;;6.43;0.80;;;;;;;5.12;100.00;98576.03;5026088;28;19913;-75
2023/01/05 09:35:59;;;;;;;6.18;0.95;;;;;;;5.47;100.00;98963.59;5024906;28;20048;-74
2023/01/05 09:38:24;;;;;;;6.47;1.93;;;;;;;5.89;100.00;99022.44;5024932;28;20045;-74
2023/01/05 09:40:54;;;;;;;5.47;1.20;;;;;;;5.91;100.00;98967.47;5024356;28;20547;-75
2023/01/05 09:43:28;;;;;;;5.60;1.20;;;;;;;5.12;100.00;98786.84;5008499;28;20159;-75
2023/01/05 09:45:54;;;;;;;4.57;0.80;;;;;;;4.97;100.00;98919.81;5008038;28;20061;-75
2023/01/05 09:48:20;;;;;;;4.43;1.20;;;;;;;4.81;100.00;99017.72;5028248;28;20033;-75
2023/01/05 09:50:48;;;;;;;;;;;;;;;4.93;100.00;99148.59;5027557;28;20106;-75
2023/01/05 09:53:15;;;;;;;6.80;0.90;;;;;;;4.78;100.00;99192.56;5028517;28;19912;-75
2023/01/05 09:55:42;;;;;;;6.72;1.10;;;;;;;4.62;100.00;99236.47;5011749;28;20033;-76
2023/01/05 09:58:20;;;;;;;7.55;0.98;;;;;;;4.48;100.00;99328.78;5028668;28;20091;-75
2023/01/05 10:01:01;;;;;;;4.00;1.17;;;;;;;4.38;100.00;99450.44;5029264;28;20045;-75
2023/01/05 10:03:28;;;;;;;12.50;1.63;;;;;;;4.32;100.00;99552.28;5024425;28;20125;-74
2023/01/05 10:05:53;;;;;;;7.95;1.67;;;;;;;4.33;100.00;99617.38;5028074;28;20017;-75
2023/01/05 10:08:31;;;;;;;7.13;1.52;;;;;;;4.34;100.00;99703.59;5013963;28;20065;-75
2023/01/05 10:14:00;;;;;;;4.88;1.10;;;;;;;4.47;100.00;99814.22;5029730;28;20026;-75
2023/01/05 10:16:27;;;;;;;6.03;1.17;;;;;;;4.76;100.00;99882.03;5027400;28;20044;-75
2023/01/05 10:18:53;;;;;;;7.13;1.30;;;;;;;4.76;100.00;99829.16;5028016;28;20040;-75
2023/01/05 10:21:25;;;;;;;;;;;;;;;4.49;100.00;99732.97;5011163;28;20025;-74
2023/01/05 10:24:21;;;;;;;8.27;1.20;;;;;;;4.61;100.00;99821.72;5028062;28;19927;-75
2023/01/05 10:27:09;;;;;;;9.43;1.85;;;;;;;4.77;100.00;99844.03;5028972;28;20060;-75
2023/01/05 10:29:56;;;;;;;16.75;1.85;;;;;;;4.68;100.00;99811.34;5027872;28;20037;-75
2023/01/05 10:32:25;;;;;;;4.82;1.02;;;;;;;4.73;100.00;99782.69;5011325;28;20041;-75
2023/01/05 10:34:56;;;;;;;7.25;1.30;;;;;;;4.63;100.00;99795.94;5028887;28;20037;-75
2023/01/05 10:37:44;;;;;;;8.10;0.93;;;;;;;4.57;100.00;99815.03;5011625;28;20037;-75
2023/01/05 10:40:31;;;;;;;8.95;1.35;;;;;;;4.64;100.00;99894.59;5023029;28;20029;-76
2023/01/05 10:43:35;;;;;;;5.60;0.98;;;;;;;4.68;100.00;99917.13;5019749;28;20108;-75
2023/01/05 10:46:02;;;;;;;10.15;1.33;;;;;;;4.57;100.00;99902.28;5027820;28;20029;-76
2023/01/05 10:48:32;;;;;;;10.73;1.50;;;;;;;4.58;100.00;99956.81;5028188;28;20109;-76
2023/01/05 10:50:58;;;;;;;7.55;1.27;;;;;;;4.55;100.00;99990.66;5028571;28;20037;-75
2023/01/05 10:53:26;;;;;;;5.70;1.47;;;;;;;4.61;100.00;100013.84;5010967;28;20033;-75
2023/01/05 10:56:09;;;;;;;5.35;1.95;;;;;;;4.59;100.00;99976.16;5028325;28;20033;-75
2023/01/05 10:58:39;;;;;;;6.30;0.90;;;;;;;4.61;100.00;99977.69;5026315;28;20121;-76
2023/01/05 11:01:25;;;;;;;8.60;1.42;;;;;;;4.58;100.00;99993.00;5010828;28;20064;-75
2023/01/05 11:03:53;;;;;;;;;;;;;;;4.73;100.00;100062.13;5011062;28;20036;-76
2023/01/05 11:06:29;;;;;;;9.57;1.50;;;;;;;4.79;100.00;100075.63;5010605;28;19913;-76
2023/01/05 11:09:05;;;;;;;6.68;1.58;;;;;;;4.83;100.00;100070.91;5027071;28;20033;-76
2023/01/05 11:11:30;;;;;;;8.40;1.13;;;;;;;4.84;100.00;100065.44;5027055;28;20029;-75
2023/01/05 11:13:57;;;;;;;10.90;2.10;;;;;;;4.89;100.00;100046.50;5027268;28;20014;-75
2023/01/05 11:16:25;;;;;;;5.95;2.10;;;;;;;5.05;100.00;100067.91;5028172;28;20029;-75
2023/01/05 11:18:56;;;;;;;18.75;1.88;;;;;;;4.91;100.00;99977.59;5027158;28;20045;-75
2023/01/05 11:21:40;;;;;;;6.45;0.88;;;;;;;5.03;100.00;100001.09;5010152;28;20033;-75
2023/01/05 11:24:26;;;;;;;8.60;1.13;;;;;;;5.05;100.00;99983.25;5008481;28;20034;-76
2023/01/05 11:27:01;;;;;;;7.93;1.58;;;;;;;5.16;100.00;100036.97;5027598;28;20450;-75
2023/01/05 11:29:28;;;;;;;4.78;1.60;;;;;;;5.14;100.00;100001.88;5028173;28;20112;-75
2023/01/05 11:32:10;;;;;;;4.55;1.05;;;;;;;5.22;100.00;99975.50;5027660;28;20026;-75
2023/01/05 11:34:45;;;;;;;11.95;1.67;;;;;;;5.10;100.00;99913.19;5027053;28;20034;-76
2023/01/05 11:37:10;;;;;;;4.95;1.85;;;;;;;5.04;100.00;99880.22;5026210;28;20116;-75
2023/01/05 11:39:47;;;;;;;6.60;1.00;;;;;;;5.13;100.00;99923.47;5026519;28;20103;-75
2023/01/05 11:42:17;;;;;;;5.88;1.05;;;;;;;5.08;100.00;99874.50;5006675;28;20065;-75
2023/01/05 11:44:48;;;;;;;3.17;0.90;;;;;;;5.03;100.00;99875.91;5024475;28;20065;-75
2023/01/05 11:47:25;;;;;;;7.13;0.80;;;;;;;5.01;100.00;99891.94;5026558;28;20631;-75
2023/01/05 11:50:04;;;;;;;5.75;1.38;;;;;;;5.15;100.00;99881.81;5026033;28;20095;-75
2023/01/05 11:52:50;;;;;;;9.55;1.50;;;;;;;5.04;100.00;99848.47;5026062;28;20445;-75
2023/01/05 11:55:18;;;;;;;3.08;0.93;;;;;;;5.13;100.00;99884.63;5027470;28;20047;-75
2023/01/05 11:57:44;;;;;;;4.82;0.80;;;;;;;5.15;100.00;99876.53;5027613;28;20664;-75
2023/01/05 12:00:28;;;;;;;3.40;0.93;;;;;;;5.08;100.00;99855.97;5026399;28;20033;-75
2023/01/05 12:03:11;;;;;;;8.30;1.00;;;;;;;5.08;100.00;99834.81;5027242;28;20037;-75
2023/01/05 12:05:50;;;;;;;4.13;1.17;;;;;;;5.09;100.00;99888.53;5009549;28;20037;-75
2023/01/05 12:08:23;;;;;;;3.90;0.80;;;;;;;5.19;100.00;99946.69;5027602;28;20104;-75
2023/01/05 12:11:14;;;;;;;8.43;1.63;;;;;;;5.11;100.00;99959.84;5008805;28;20037;-75
2023/01/05 12:13:55;;;;;;;7.28;1.05;;;;;;;5.13;100.00;99971.94;5025885;28;20128;-76
2023/01/05 12:16:39;;;;;;;10.13;1.10;;;;;;;5.18;100.00;99995.31;5027031;28;20025;-75
2023/01/05 12:19:35;;;;;;;3.50;0.80;;;;;;;5.17;100.00;100041.28;5018921;28;20394;-75